sensor_id;sensor_type;location;lat;lon;timestamp;P1;durP1;ratioP1;P2;durP2;ratioP2
64917;SDS011;52176;44.858;38.372;2022-07-29T07:15:46;10.45;;;4.25;;
64917;SDS011;52176;44.858;38.372;2022-07-29T07:20:40;9.30;;;3.60;;
64917;SDS011;52176;44.858;38.372;2022-07-29T07:23:06;8.98;;;3.70;;
64917;SDS011;52176;44.858;38.372;2022-07-29T07:25:32;6.70;;;3.40;;
64917;SDS011;52176;44.858;38.372;2022-07-29T07:27:58;12.05;;;3.60;;
64917;SDS011;52176;44.858;38.372;2022-07-29T07:30:24;9.93;;;3.47;;
64917;SDS011;52176;44.858;38.372;2022-07-29T08:04:32;6.18;;;3.60;;
64917;SDS011;52176;44.858;38.372;2022-07-29T08:06:58;8.45;;;3.78;;
64917;SDS011;52176;44.858;38.372;2022-07-29T08:09:25;7.82;;;3.60;;
64917;SDS011;52176;44.858;38.372;2022-07-29T08:11:53;8.88;;;3.80;;
64917;SDS011;52176;44.858;38.372;2022-07-29T08:14:19;11.77;;;3.60;;
64917;SDS011;52176;44.858;38.372;2022-07-29T08:16:45;11.57;;;3.33;;
64917;SDS011;52176;44.858;38.372;2022-07-29T08:19:11;10.80;;;3.20;;
64917;SDS011;52176;44.858;38.372;2022-07-29T08:21:38;8.95;;;3.33;;
64917;SDS011;52176;44.858;38.372;2022-07-29T08:24:04;14.15;;;3.47;;
64917;SDS011;52176;44.858;38.372;2022-07-29T08:26:49;8.82;;;2.90;;
64917;SDS011;52176;44.858;38.372;2022-07-29T08:29:15;11.05;;;3.35;;
64917;SDS011;52176;44.858;38.372;2022-07-29T08:31:42;7.93;;;3.03;;
64917;SDS011;52176;44.858;38.372;2022-07-29T08:34:08;17.63;;;3.58;;
64917;SDS011;52176;44.858;38.372;2022-07-29T08:36:34;7.88;;;3.03;;
64917;SDS011;52176;44.858;38.372;2022-07-29T08:39:01;9.60;;;3.40;;
64917;SDS011;52176;44.858;38.372;2022-07-29T08:41:27;5.55;;;3.28;;
64917;SDS011;52176;44.858;38.372;2022-07-29T08:43:53;7.28;;;3.00;;
64917;SDS011;52176;44.858;38.372;2022-07-29T08:46:19;9.90;;;3.30;;
64917;SDS011;52176;44.858;38.372;2022-07-29T08:48:47;10.68;;;3.30;;
64917;SDS011;52176;44.858;38.372;2022-07-29T08:51:14;9.35;;;3.25;;
64917;SDS011;52176;44.858;38.372;2022-07-29T08:53:42;11.18;;;3.15;;
64917;SDS011;52176;44.858;38.372;2022-07-29T08:56:13;12.23;;;3.80;;
64917;SDS011;52176;44.858;38.372;2022-07-29T08:58:42;11.85;;;3.70;;
64917;SDS011;52176;44.858;38.372;2022-07-29T09:01:08;6.80;;;3.30;;
64917;SDS011;52176;44.858;38.372;2022-07-29T09:03:36;6.97;;;3.45;;
64917;SDS011;52176;44.858;38.372;2022-07-29T09:06:04;8.20;;;3.70;;
64917;SDS011;52176;44.858;38.372;2022-07-29T18:17:32;17.23;;;7.78;;
64917;SDS011;52176;44.858;38.372;2022-07-29T18:19:58;30.13;;;8.63;;
64917;SDS011;52176;44.858;38.372;2022-07-29T18:22:24;25.27;;;8.40;;
64917;SDS011;52176;44.858;38.372;2022-07-29T18:24:50;14.48;;;9.38;;
64917;SDS011;52176;44.858;38.372;2022-07-29T18:27:16;21.98;;;10.85;;
64917;SDS011;52176;44.858;38.372;2022-07-29T18:29:44;37.47;;;15.23;;
64917;SDS011;52176;44.858;38.372;2022-07-29T18:32:10;48.92;;;18.35;;
64917;SDS011;52176;44.858;38.372;2022-07-29T18:34:36;49.80;;;16.90;;
64917;SDS011;52176;44.858;38.372;2022-07-29T18:37:02;33.65;;;14.02;;
64917;SDS011;52176;44.858;38.372;2022-07-29T18:39:28;36.70;;;13.70;;
